Time;durP1;ratioP1;P1;durP2;ratioP2;P2;SDS_P1;SDS_P2;PMS_P1;PMS_P2;Temp;Humidity;BMP_temperature;BMP_pressure;BME280_temperature;BME280_humidity;BME280_pressure;Samples;Min_cycle;Max_cycle;Signal;HPM_P1;HPM_P2
2021/04/01 00:01:09;;;;;;;2.17;1.98;;;;;;;19.83;30.46;96596.81;5062532;28;20048;-54
2021/04/01 00:03:37;;;;;;;2.35;2.15;;;;;;;19.82;30.82;96592.44;5062018;28;20067;-55
2021/04/01 00:06:03;;;;;;;3.15;2.55;;;;;;;19.81;30.75;96596.25;5060308;28;20098;-55
2021/04/01 00:08:29;;;;;;;2.95;2.28;;;;;;;19.81;30.72;96590.84;5060593;28;20060;-54
2021/04/01 00:10:55;;;;;;;1.95;1.80;;;;;;;19.81;30.41;96587.31;5055809;28;20048;-55
2021/04/01 00:13:20;;;;;;;2.33;2.13;;;;;;;19.80;30.51;96591.09;5063635;28;20118;-55
2021/04/01 00:15:46;;;;;;;2.28;2.10;;;;;;;19.78;30.41;96582.41;5060332;28;20086;-55
2021/04/01 00:18:16;;;;;;;2.40;2.20;;;;;;;19.77;30.71;96584.31;5066863;28;20068;-55
2021/04/01 00:20:42;;;;;;;2.30;2.10;;;;;;;19.76;30.82;96568.28;5069715;28;20059;-55
2021/04/01 00:23:08;;;;;;;2.15;1.80;;;;;;;19.75;30.36;96569.38;5062656;28;20043;-55
2021/04/01 00:25:34;;;;;;;2.25;1.80;;;;;;;19.73;30.81;96566.91;5064115;28;20419;-54
2021/04/01 00:28:00;;;;;;;2.38;2.00;;;;;;;19.72;30.58;96575.34;5058785;28;20102;-56
2021/04/01 00:30:26;;;;;;;2.78;2.10;;;;;;;19.71;30.73;96568.28;5056110;28;20049;-54
2021/04/01 00:32:52;;;;;;;2.38;2.08;;;;;;;19.71;30.43;96571.81;5065283;28;20080;-53
2021/04/01 00:35:18;;;;;;;2.42;2.22;;;;;;;19.69;30.44;96567.72;5055973;28;20073;-55
2021/04/01 00:37:44;;;;;;;2.08;1.80;;;;;;;19.68;30.48;96563.34;5066885;28;20098;-55
2021/04/01 00:40:11;;;;;;;2.00;1.90;;;;;;;19.67;30.57;96562.53;5065528;28;20048;-56
2021/04/01 00:42:36;;;;;;;2.55;2.28;;;;;;;19.67;30.39;96564.47;5059563;28;20197;-54
2021/04/01 00:45:07;;;;;;;2.00;1.80;;;;;;;19.64;30.71;96555.75;5064187;28;20104;-55
2021/04/01 00:47:36;;;;;;;2.00;1.90;;;;;;;19.64;30.50;96557.66;5061828;28;20048;-56
2021/04/01 00:50:04;;;;;;;2.33;2.03;;;;;;;19.62;30.69;96555.22;5058566;28;20123;-55
2021/04/01 00:52:30;;;;;;;3.28;2.10;;;;;;;19.62;30.47;96548.97;5058545;28;20053;-54
2021/04/01 00:54:56;;;;;;;2.35;2.10;;;;;;;19.60;30.68;96551.97;5057645;28;20075;-55
2021/04/01 00:57:22;;;;;;;3.10;1.95;;;;;;;19.59;30.51;96547.59;5064508;28;20113;-55
2021/04/01 00:59:48;;;;;;;1.70;1.60;;;;;;;19.59;30.31;96550.31;5056850;28;20059;-55
2021/04/01 01:02:14;;;;;;;1.95;1.80;;;;;;;19.57;30.32;96549.78;5060963;28;20056;-56
2021/04/01 01:04:40;;;;;;;1.80;1.70;;;;;;;19.56;30.22;96545.44;5064956;28;20055;-55
2021/04/01 01:07:06;;;;;;;2.95;1.98;;;;;;;19.56;30.19;96547.34;5063003;28;20056;-55
2021/04/01 01:09:31;;;;;;;1.80;1.70;;;;;;;19.55;30.12;96543.00;5062454;28;20118;-56
2021/04/01 01:11:57;;;;;;;2.85;1.90;;;;;;;19.55;30.10;96543.00;5059714;28;20476;-52
2021/04/01 01:14:23;;;;;;;2.45;1.90;;;;;;;19.53;30.01;96539.72;5060113;28;20041;-56
2021/04/01 01:16:49;;;;;;;2.53;1.88;;;;;;;19.53;30.09;96542.44;5060775;28;20082;-55
2021/04/01 01:19:15;;;;;;;2.38;1.90;;;;;;;19.52;30.42;96535.41;5062114;28;20051;-55
2021/04/01 01:21:40;;;;;;;2.47;1.75;;;;;;;19.48;30.12;96529.69;5049478;28;20100;-55
2021/04/01 01:24:14;;;;;;;2.83;1.90;;;;;;;19.49;30.00;96536.72;5063680;28;20048;-55
2021/04/01 01:26:40;;;;;;;1.83;1.73;;;;;;;19.47;29.98;96530.75;5058256;28;20497;-53
2021/04/01 01:29:07;;;;;;;1.92;1.83;;;;;;;19.47;30.38;96527.25;5052375;28;20056;-54
2021/04/01 01:31:34;;;;;;;2.00;1.90;;;;;;;19.47;30.06;96532.66;5057531;28;20559;-54
2021/04/01 01:34:00;;;;;;;2.28;1.90;;;;;;;19.45;30.02;96532.94;5061424;28;20125;-52
2021/04/01 01:36:25;;;;;;;1.50;1.40;;;;;;;19.44;30.02;96525.88;5063031;28;20182;-54
2021/04/01 01:38:54;;;;;;;2.22;1.42;;;;;;;19.42;30.36;96533.50;5064377;28;20062;-55
2021/04/01 01:41:20;;;;;;;1.40;1.30;;;;;;;19.41;30.27;96526.44;5063215;28;20527;-55
2021/04/01 01:43:45;;;;;;;2.45;1.88;;;;;;;19.40;30.26;96525.59;5057931;28;20076;-55
2021/04/01 01:46:11;;;;;;;1.73;1.35;;;;;;;19.39;30.21;96524.00;5066623;28;20152;-56
2021/04/01 01:48:37;;;;;;;1.55;1.45;;;;;;;19.38;30.16;96522.34;5062892;28;20500;-57
2021/04/01 01:51:03;;;;;;;2.15;1.83;;;;;;;19.37;30.01;96531.59;5048990;28;20060;-54
2021/04/01 01:53:29;;;;;;;2.40;1.65;;;;;;;19.37;30.19;96522.66;5061004;28;20166;-54
2021/04/01 01:55:54;;;;;;;1.73;1.60;;;;;;;19.36;30.23;96524.53;5061677;28;20051;-54
2021/04/01 01:58:22;;;;;;;2.83;2.05;;;;;;;19.34;29.99;96529.41;5061751;28;20052;-54
2021/04/01 02:00:50;;;;;;;1.80;1.70;;;;;;;19.33;30.17;96522.38;5063212;28;20139;-55
2021/04/01 02:03:16;;;;;;;2.28;1.80;;;;;;;19.33;30.40;96530.50;5064261;28;20048;-53
2021/04/01 02:05:42;;;;;;;1.88;1.77;;;;;;;19.32;30.07;96522.63;5063052;28;20048;-55
2021/04/01 02:08:08;;;;;;;2.17;1.95;;;;;;;19.30;30.19;96525.59;5063389;28;20094;-55
2021/04/01 02:10:39;;;;;;;2.03;1.70;;;;;;;19.29;30.33;96518.56;5062544;28;20056;-54
2021/04/01 02:13:05;;;;;;;1.38;1.30;;;;;;;19.30;30.40;96520.19;5065756;28;20320;-54
2021/04/01 02:15:33;;;;;;;1.77;1.63;;;;;;;19.28;30.46;96516.91;5060313;28;20056;-53
2021/04/01 02:18:11;;;;;;;2.35;2.05;;;;;;;19.28;30.15;96518.81;5064267;28;20048;-53
2021/04/01 02:20:42;;;;;;;1.75;1.65;;;;;;;19.28;30.09;96518.81;5061410;28;20099;-55
2021/04/01 02:23:08;;;;;;;2.28;1.95;;;;;;;19.26;30.35;96518.28;5065991;28;20399;-56
2021/04/01 02:25:34;;;;;;;2.20;2.00;;;;;;;19.26;30.23;96513.66;5061094;28;20274;-54
2021/04/01 02:28:00;;;;;;;3.83;1.63;;;;;;;19.24;30.03;96516.66;5065128;28;20113;-54
2021/04/01 02:30:26;;;;;;;2.15;1.92;;;;;;;19.23;30.36;96515.03;5062072;28;20531;-55
2021/04/01 02:32:52;;;;;;;1.42;1.33;;;;;;;19.23;30.30;96514.22;5060671;28;20543;-56
2021/04/01 02:35:18;;;;;;;1.80;1.63;;;;;;;19.22;30.11;96515.28;5055416;28;20078;-54
2021/04/01 02:37:44;;;;;;;1.55;1.40;;;;;;;19.22;30.41;96516.13;5065243;28;20105;-55
2021/04/01 02:40:11;;;;;;;2.08;1.70;;;;;;;19.21;30.08;96514.47;5065158;28;20048;-55
2021/04/01 02:42:37;;;;;;;2.00;1.75;;;;;;;19.21;30.46;96513.69;5064000;28;20052;-52
2021/04/01 02:45:03;;;;;;;1.80;1.70;;;;;;;19.20;30.10;96514.75;5063390;28;20142;-55
2021/04/01 02:47:28;;;;;;;2.33;1.50;;;;;;;19.19;30.05;96511.22;5063464;28;20052;-55
2021/04/01 02:49:54;;;;;;;2.67;1.60;;;;;;;19.19;30.31;96516.66;5062591;28;20072;-53
2021/04/01 02:52:20;;;;;;;1.40;1.30;;;;;;;19.18;30.63;96523.19;5058617;28;20099;-52
2021/04/01 02:54:46;;;;;;;3.65;1.52;;;;;;;19.18;30.61;96512.31;5062140;28;20540;-53
2021/04/01 02:57:18;;;;;;;1.17;1.15;;;;;;;19.17;30.45;96518.00;5062949;28;20139;-54
2021/04/01 02:59:47;;;;;;;1.63;1.50;;;;;;;19.17;30.55;96507.97;5061413;28;20055;-56
2021/04/01 03:02:14;;;;;;;2.78;1.70;;;;;;;19.16;30.26;96509.06;5065640;28;20105;-55
2021/04/01 03:04:40;;;;;;;1.55;1.45;;;;;;;19.15;30.35;96501.97;5064187;28;20059;-54
2021/04/01 03:07:06;;;;;;;2.00;1.52;;;;;;;19.15;30.28;96501.97;5062535;28;20052;-55
2021/04/01 03:09:32;;;;;;;1.58;1.48;;;;;;;19.14;30.45;96505.00;5059581;28;20060;-55
2021/04/01 03:11:58;;;;;;;2.30;1.70;;;;;;;19.14;30.58;96502.28;5058230;28;20041;-55
2021/04/01 03:14:24;;;;;;;1.75;1.52;;;;;;;19.13;30.07;96497.91;5055812;28;20048;-54
2021/04/01 03:16:50;;;;;;;2.10;1.50;;;;;;;19.13;30.32;96500.63;5065955;28;20151;-56
2021/04/01 03:19:16;;;;;;;2.03;1.30;;;;;;;19.12;30.28;96496.31;5062445;28;20144;-54
2021/04/01 03:21:43;;;;;;;2.10;1.88;;;;;;;19.11;30.46;96494.66;5061118;28;20135;-55
2021/04/01 03:24:10;;;;;;;2.88;2.13;;;;;;;19.11;30.78;96494.66;5056533;28;20082;-55
2021/04/01 03:26:35;;;;;;;1.40;1.30;;;;;;;19.10;30.83;96496.56;5068794;28;20138;-56
2021/04/01 03:29:02;;;;;;;2.75;1.40;;;;;;;19.08;30.51;96487.06;5062754;28;20147;-54
2021/04/01 03:31:27;;;;;;;1.60;1.50;;;;;;;19.08;30.78;96487.06;5064150;28;20066;-55
2021/04/01 03:33:53;;;;;;;2.20;1.40;;;;;;;19.07;30.71;96488.16;5059932;28;20048;-56
2021/04/01 03:36:19;;;;;;;1.50;1.40;;;;;;;19.07;30.47;96474.56;5064666;28;20053;-56
2021/04/01 03:38:46;;;;;;;1.80;1.48;;;;;;;19.05;30.49;96482.97;5065487;28;20559;-54
2021/04/01 03:41:12;;;;;;;2.28;1.45;;;;;;;19.04;30.75;96478.66;5061606;28;20064;-54
2021/04/01 03:43:38;;;;;;;1.48;1.38;;;;;;;19.04;30.36;96479.47;5055234;28;20112;-55
2021/04/01 03:46:05;;;;;;;1.67;1.58;;;;;;;19.03;30.74;96483.28;5066122;28;20269;-54
2021/04/01 03:48:31;;;;;;;1.70;1.40;;;;;;;19.02;30.74;96478.91;5058379;28;20080;-56
2021/04/01 03:50:57;;;;;;;1.45;1.35;;;;;;;19.01;30.38;96477.31;5056558;28;20390;-55
2021/04/01 03:53:22;;;;;;;1.60;1.50;;;;;;;19.02;30.59;96481.63;5062830;28;20052;-55
2021/04/01 03:55:49;;;;;;;2.15;1.55;;;;;;;19.01;30.70;96485.44;5059748;28;20051;-55
2021/04/01 04:08:59;;;;;;;2.00;1.48;;;;;;;18.99;31.08;96475.91;5056520;28;20093;-56
2021/04/01 04:14:14;;;;;;;2.25;1.48;;;;;;;18.98;30.88;96474.31;5063970;28;20041;-56
2021/04/01 04:16:41;;;;;;;2.30;1.50;;;;;;;18.92;31.00;96468.03;5063917;28;20048;-54
2021/04/01 04:19:08;;;;;;;3.35;1.85;;;;;;;18.96;30.99;96482.72;5064497;28;20527;-54
2021/04/01 04:21:33;;;;;;;1.50;1.40;;;;;;;18.96;31.18;96481.91;5057901;28;20762;-55
2021/04/01 04:24:01;;;;;;;1.48;1.23;;;;;;;18.95;30.87;96483.81;5053134;28;20053;-55
2021/04/01 04:26:26;;;;;;;1.95;1.25;;;;;;;18.96;30.80;96482.72;5072617;28;20053;-55
2021/04/01 04:28:52;;;;;;;2.45;1.38;;;;;;;18.95;30.77;96482.97;5060751;28;20059;-56
2021/04/01 04:31:18;;;;;;;1.55;1.45;;;;;;;18.94;30.84;96484.88;5060827;28;20079;-54
2021/04/01 04:33:44;;;;;;;1.77;1.40;;;;;;;18.94;30.77;96482.16;5059747;28;20048;-56
2021/04/01 04:36:10;;;;;;;1.40;1.30;;;;;;;18.94;30.86;96475.94;5060038;28;20060;-55
2021/04/01 04:38:36;;;;;;;1.33;1.25;;;;;;;18.93;31.17;96477.00;5060753;28;20052;-55
2021/04/01 04:41:02;;;;;;;1.67;1.58;;;;;;;18.93;31.27;96471.56;5060200;28;20860;-53
2021/04/01 04:43:29;;;;;;;2.47;2.22;;;;;;;18.92;30.81;96476.19;5054285;28;20071;-58
2021/04/01 04:45:55;;;;;;;1.67;1.33;;;;;;;18.92;30.79;96476.19;5058835;28;20558;-55
2021/04/01 04:48:21;;;;;;;1.30;1.20;;;;;;;18.91;30.83;96474.56;5058354;28;20083;-56
2021/04/01 04:50:47;;;;;;;1.80;1.70;;;;;;;18.90;30.92;96477.56;5057768;28;20121;-54
2021/04/01 04:53:14;;;;;;;1.63;1.45;;;;;;;18.89;30.99;96479.47;5062133;28;20074;-51
2021/04/01 04:55:42;;;;;;;1.58;1.45;;;;;;;18.89;31.24;96474.03;5054181;28;20389;-56
2021/04/01 04:58:23;;;;;;;1.83;1.73;;;;;;;18.90;31.04;96477.56;5057717;28;20048;-55
2021/04/01 05:01:08;;;;;;;1.88;1.55;;;;;;;18.89;30.95;96473.22;5059022;28;20064;-54
2021/04/01 05:06:40;;;;;;;1.93;1.50;;;;;;;18.86;30.98;96469.13;5064587;28;20093;-55
2021/04/01 05:09:04;;;;;;;2.35;1.60;;;;;;;18.86;31.18;96469.13;5063772;28;20048;-56
2021/04/01 05:11:33;;;;;;;2.03;1.88;;;;;;;18.86;31.10;96471.03;5064275;28;20041;-55
2021/04/01 05:14:00;;;;;;;2.20;1.92;;;;;;;18.82;30.98;96460.72;5059347;28;20079;-56
2021/04/01 05:16:25;;;;;;;1.65;1.55;;;;;;;18.80;31.06;96467.50;5065180;28;20135;-54
2021/04/01 05:18:51;;;;;;;2.67;1.73;;;;;;;18.83;31.27;96470.50;5064475;28;20483;-55
2021/04/01 05:21:19;;;;;;;2.10;1.48;;;;;;;18.79;31.44;96468.59;5061828;28;20394;-56
2021/04/01 05:23:48;;;;;;;1.70;1.60;;;;;;;18.82;31.18;96473.47;5053459;28;20735;-53
2021/04/01 05:28:44;;;;;;;1.70;1.60;;;;;;;18.78;31.10;96466.91;5059310;28;20574;-55
2021/04/01 05:31:11;;;;;;;2.20;1.73;;;;;;;18.80;31.50;96473.75;5063154;28;20045;-54
2021/04/01 05:33:42;;;;;;;2.53;1.75;;;;;;;18.80;31.31;96473.75;5060778;28;20075;-53
2021/04/01 05:36:10;;;;;;;3.47;1.85;;;;;;;18.80;31.18;96478.34;5059794;28;20101;-56
2021/04/01 05:38:37;;;;;;;1.73;1.63;;;;;;;18.80;31.23;96473.75;5063255;28;20047;-56
2021/04/01 05:41:03;;;;;;;2.55;2.20;;;;;;;18.81;31.28;96477.28;5059916;28;20076;-55
2021/04/01 05:43:32;;;;;;;1.95;1.75;;;;;;;18.79;31.37;96472.13;5053606;28;20056;-54
2021/04/01 05:46:03;;;;;;;2.40;1.50;;;;;;;18.80;31.40;96471.03;5058241;28;20044;-54
2021/04/01 05:48:43;;;;;;;1.95;1.85;;;;;;;18.80;31.20;96478.34;5053615;28;20040;-53
2021/04/01 05:51:29;;;;;;;2.35;1.42;;;;;;;18.79;31.68;96471.31;5067263;28;20519;-52
2021/04/01 05:57:03;;;;;;;2.28;2.00;;;;;;;18.79;31.71;96479.44;5065800;28;20040;-53
2021/04/01 06:00:21;;;;;;;1.70;1.60;;;;;;;18.76;31.49;96483.50;5062731;28;20059;-54
2021/04/01 06:02:34;;;;;;;2.00;1.83;;;;;;;18.76;31.93;96472.63;5055176;28;20080;-54
2021/04/01 06:05:04;;;;;;;2.08;1.80;;;;;;;18.75;32.02;96481.03;5058432;28;20415;-54
2021/04/01 06:07:32;;;;;;;2.38;1.52;;;;;;;18.76;31.51;96477.22;5060988;28;20040;-54
2021/04/01 06:09:58;;;;;;;2.95;1.60;;;;;;;18.75;32.03;96484.56;5076345;28;20056;-54
2021/04/01 06:12:31;;;;;;;2.58;1.85;;;;;;;18.75;31.97;96483.75;5065272;28;20056;-55
2021/04/01 06:15:02;;;;;;;1.73;1.63;;;;;;;18.74;31.88;96482.94;5063354;28;20389;-54
2021/04/01 06:17:30;;;;;;;1.60;1.50;;;;;;;18.74;32.02;96491.09;5064890;28;20076;-57
2021/04/01 06:20:00;;;;;;;1.70;1.60;;;;;;;18.75;31.95;96481.03;5060261;28;20147;-55
2021/04/01 06:22:26;;;;;;;1.85;1.70;;;;;;;18.74;31.95;96492.97;5058510;28;20170;-55
2021/04/01 06:24:53;;;;;;;2.42;1.63;;;;;;;18.74;31.90;96491.09;5060932;28;20059;-55
2021/04/01 06:27:26;;;;;;;1.60;1.50;;;;;;;18.74;31.72;96484.81;5063144;28;20109;-55
2021/04/01 06:30:15;;;;;;;1.90;1.80;;;;;;;18.72;32.00;96493.25;5063847;28;20064;-54
2021/04/01 06:32:51;;;;;;;1.70;1.60;;;;;;;18.72;32.03;96484.28;5066442;28;20082;-53
2021/04/01 06:35:28;;;;;;;1.70;1.60;;;;;;;18.72;31.71;96476.13;5056787;28;20055;-49
2021/04/01 06:40:45;;;;;;;2.50;1.80;;;;;;;18.73;32.33;96480.50;5062897;28;20487;-51
2021/04/01 06:43:30;;;;;;;1.70;1.60;;;;;;;18.73;32.37;96475.88;5056781;28;20051;-54
2021/04/01 06:46:01;;;;;;;1.60;1.42;;;;;;;18.74;32.42;96469.38;5063262;28;20124;-55
2021/04/01 06:48:52;;;;;;;1.65;1.50;;;;;;;18.75;32.29;96465.56;5061421;28;20088;-57
2021/04/01 06:51:24;;;;;;;1.75;1.65;;;;;;;18.76;32.11;96461.78;5060299;28;20072;-54
2021/04/01 06:59:44;;;;;;;2.03;1.60;;;;;;;18.78;32.17;96470.50;5062342;28;20137;-55
2021/04/01 07:04:37;;;;;;;1.65;1.50;;;;;;;18.80;32.15;96464.78;5060343;28;20044;-56
2021/04/01 07:07:11;;;;;;;1.50;1.40;;;;;;;18.81;32.55;96469.13;5065824;28;20072;-56
2021/04/01 07:09:55;;;;;;;4.00;1.65;;;;;;;18.82;32.25;96468.03;5066489;28;20518;-55
2021/04/01 07:12:26;;;;;;;3.25;1.63;;;;;;;18.84;32.16;96460.44;5048320;28;20057;-55
2021/04/01 07:14:58;;;;;;;2.38;1.80;;;;;;;18.84;32.47;96457.72;5056690;28;20830;-54
2021/04/01 07:17:32;;;;;;;2.22;1.75;;;;;;;18.86;32.81;96452.84;5059896;28;20055;-56
2021/04/01 07:23:20;;;;;;;3.03;1.63;;;;;;;18.88;32.51;96460.72;5063711;28;20057;-56
2021/04/01 07:47:53;;;;;;;1.65;1.55;;;;;;;18.96;32.84;96476.47;5068452;28;20169;-56
2021/04/01 07:50:24;;;;;;;2.70;1.60;;;;;;;18.97;32.99;96475.38;5058460;28;20049;-52
2021/04/01 07:52:52;;;;;;;1.98;1.88;;;;;;;18.98;32.62;96474.31;5062825;28;20060;-53
2021/04/01 07:55:35;;;;;;;1.75;1.60;;;;;;;18.99;32.61;96478.63;5058739;28;20044;-53
2021/04/01 07:58:20;;;;;;;1.70;1.58;;;;;;;19.00;32.93;96474.84;5068613;28;20055;-54
2021/04/01 08:06:19;;;;;;;3.40;2.08;;;;;;;19.02;32.57;96468.06;5060123;28;20169;-55
2021/04/01 08:08:46;;;;;;;3.42;2.17;;;;;;;19.03;32.81;96466.97;5057478;28;20052;-54
2021/04/01 08:11:15;;;;;;;3.78;2.20;;;;;;;19.03;32.69;96464.28;5063646;28;20086;-54
2021/04/01 08:13:42;;;;;;;3.35;1.90;;;;;;;19.05;33.04;96463.97;5058724;28;20102;-54
2021/04/01 08:16:10;;;;;;;3.83;2.30;;;;;;;19.06;32.67;96462.09;5070715;28;20049;-53
2021/04/01 08:18:40;;;;;;;2.22;1.80;;;;;;;19.07;32.73;96463.72;5063172;28;20054;-54
2021/04/01 08:21:11;;;;;;;5.78;2.10;;;;;;;19.08;32.46;96462.63;5065765;28;20084;-52
2021/04/01 08:23:43;;;;;;;2.30;1.90;;;;;;;19.08;32.89;96458.03;5072428;28;20064;-56
2021/04/01 08:26:21;;;;;;;2.28;2.08;;;;;;;19.11;33.08;96462.09;5065167;28;20095;-55
2021/04/01 08:36:51;;;;;;;2.78;1.77;;;;;;;19.13;32.64;96455.28;5063299;28;20048;-53
2021/04/01 08:39:19;;;;;;;2.63;2.10;;;;;;;19.15;32.99;96455.03;5059659;28;20055;-53
2021/04/01 08:42:08;;;;;;;4.53;1.95;;;;;;;19.16;32.81;96457.47;5062087;28;20080;-55
2021/04/01 08:45:28;;;;;;;2.97;2.42;;;;;;;19.17;32.67;96459.09;5053995;28;20506;-53
2021/04/01 08:48:21;;;;;;;3.35;1.60;;;;;;;19.18;32.36;96455.31;5060790;28;20628;-53
2021/04/01 08:51:01;;;;;;;4.00;1.92;;;;;;;19.18;32.53;96462.59;5053929;28;20066;-53
2021/04/01 08:54:01;;;;;;;2.80;1.92;;;;;;;19.18;32.44;96458.00;5061177;28;20087;-56
2021/04/01 08:56:28;;;;;;;2.83;1.98;;;;;;;19.20;32.76;96458.56;5073592;28;20148;-55
2021/04/01 08:59:03;;;;;;;1.80;1.70;;;;;;;19.21;32.69;96459.38;5058661;28;20515;-53
2021/04/01 09:01:35;;;;;;;4.32;2.22;;;;;;;19.22;32.61;96456.38;5060556;28;20083;-53
2021/04/01 09:04:01;;;;;;;2.78;1.88;;;;;;;19.24;32.85;96456.09;5061427;28;20122;-54
2021/04/01 09:06:42;;;;;;;1.95;1.85;;;;;;;19.24;32.74;96454.22;5059383;28;20516;-54
2021/04/01 09:09:36;;;;;;;2.65;2.20;;;;;;;19.26;32.52;96451.19;5061259;28;20056;-53
2021/04/01 09:12:41;;;;;;;1.88;1.77;;;;;;;19.29;32.42;96449.88;5052783;28;20114;-56
2021/04/01 09:15:19;;;;;;;3.85;2.00;;;;;;;19.31;32.82;96445.78;5055195;28;20403;-54
2021/04/01 09:17:46;;;;;;;3.25;2.30;;;;;;;19.33;32.74;96443.59;5057718;28;20143;-53
2021/04/01 09:20:18;;;;;;;7.82;3.47;;;;;;;19.35;32.81;96436.00;5064218;28;20512;-55
2021/04/01 09:22:55;;;;;;;3.67;2.40;;;;;;;19.38;32.76;96443.59;5058292;28;20924;-53
2021/04/01 09:25:21;;;;;;;4.40;2.10;;;;;;;19.40;33.06;96438.69;5054530;28;20084;-56
2021/04/01 09:27:52;;;;;;;3.45;2.40;;;;;;;19.43;33.23;96437.31;5057634;28;20055;-54
2021/04/01 09:30:23;;;;;;;4.50;2.28;;;;;;;19.44;33.37;96442.50;5062769;28;20412;-50
2021/04/01 09:32:51;;;;;;;3.00;1.90;;;;;;;19.48;33.06;96434.59;5057007;28;20508;-53
2021/04/01 09:35:17;;;;;;;2.65;2.45;;;;;;;19.51;33.20;96433.25;5054224;28;20048;-52
2021/04/01 09:37:53;;;;;;;5.95;2.63;;;;;;;19.52;32.95;96430.25;5063405;28;20068;-54
2021/04/01 09:40:20;;;;;;;3.63;2.10;;;;;;;19.56;32.94;96427.81;5062385;28;20051;-55
2021/04/01 09:42:46;;;;;;;3.72;2.35;;;;;;;19.57;33.38;96424.78;5058234;28;20129;-53
2021/04/01 09:45:28;;;;;;;5.65;2.33;;;;;;;19.59;33.27;96427.25;5053151;28;20057;-54
2021/04/01 09:48:01;;;;;;;4.85;2.53;;;;;;;19.60;32.92;96418.81;5069790;28;20595;-54
2021/04/01 09:50:32;;;;;;;3.97;2.28;;;;;;;19.63;32.91;96426.41;5065350;28;20150;-55
2021/04/01 09:53:04;;;;;;;2.53;2.33;;;;;;;19.65;33.43;96431.56;5062435;28;20546;-57
2021/04/01 09:55:38;;;;;;;4.28;2.08;;;;;;;19.67;33.09;96426.69;5057647;28;20523;-56
2021/04/01 09:58:18;;;;;;;3.40;2.38;;;;;;;19.69;33.24;96421.78;5053176;28;20393;-57
2021/04/01 10:03:21;;;;;;;3.33;2.22;;;;;;;19.77;33.13;96425.88;5064472;28;20051;-55
2021/04/01 10:05:48;;;;;;;2.85;2.58;;;;;;;19.79;33.13;96421.78;5054343;28;20062;-55
2021/04/01 10:08:27;;;;;;;3.67;2.25;;;;;;;19.80;33.13;96415.25;5047273;28;20531;-56
2021/04/01 10:10:55;;;;;;;4.45;2.85;;;;;;;19.83;33.04;96416.63;5060010;28;20063;-58
2021/04/01 10:13:25;;;;;;;3.08;2.70;;;;;;;19.88;32.97;96415.78;5064836;28;20512;-57
2021/04/01 10:15:53;;;;;;;3.42;2.60;;;;;;;19.90;33.30;96402.72;5063966;28;20052;-56
2021/04/01 10:18:25;;;;;;;3.25;2.58;;;;;;;19.92;33.12;96401.34;5060639;28;20079;-55
2021/04/01 10:21:04;;;;;;;3.63;2.30;;;;;;;19.97;33.27;96406.75;5060618;28;20056;-57
2021/04/01 10:23:41;;;;;;;4.57;2.60;;;;;;;20.01;33.31;96399.66;5060443;28;20055;-56
2021/04/01 10:26:08;;;;;;;3.50;2.30;;;;;;;20.05;33.39;96403.44;5062100;28;20059;-54
2021/04/01 10:28:44;;;;;;;4.80;2.13;;;;;;;20.08;33.45;96399.38;5062770;28;20045;-56
2021/04/01 10:31:17;;;;;;;2.95;2.55;;;;;;;20.12;33.08;96394.16;5059285;28;20053;-56
2021/04/01 10:34:09;;;;;;;3.00;2.67;;;;;;;20.15;33.33;96399.88;5060469;28;20052;-54
2021/04/01 10:36:39;;;;;;;4.55;2.60;;;;;;;20.17;33.15;96386.78;5064576;28;20048;-56
2021/04/01 10:39:10;;;;;;;4.35;3.03;;;;;;;20.21;33.27;96392.50;5047772;28;20430;-58
2021/04/01 10:41:47;;;;;;;3.13;2.80;;;;;;;20.23;33.40;96384.88;5068299;28;20416;-55
2021/04/01 10:44:13;;;;;;;3.65;2.65;;;;;;;20.27;33.05;96391.38;5073352;28;20049;-58
2021/04/01 10:46:48;;;;;;;4.45;2.58;;;;;;;20.29;32.87;96381.03;5062847;28;20058;-54
2021/04/01 10:49:14;;;;;;;;;;;;;;;20.33;33.04;96379.38;5057998;28;20052;-52
2021/04/01 10:52:05;;;;;;;3.63;2.83;;;;;;;20.34;32.88;96380.97;5060328;28;20378;-52
2021/04/01 10:54:39;;;;;;;3.70;2.47;;;;;;;20.36;32.69;96370.63;5062899;28;20099;-53
2021/04/01 10:57:10;;;;;;;5.35;2.70;;;;;;;20.40;32.96;96373.59;5068831;28;20738;-53
2021/04/01 10:59:43;;;;;;;5.20;2.33;;;;;;;20.43;32.95;96371.13;5057626;28;20087;-54
2021/04/01 11:02:11;;;;;;;3.50;2.70;;;;;;;20.45;33.01;96371.69;5061110;28;20048;-56
2021/04/01 11:04:37;;;;;;;2.90;2.28;;;;;;;20.46;33.31;96364.31;5062598;28;20586;-56
2021/04/01 11:07:03;;;;;;;4.68;2.35;;;;;;;20.50;33.13;96356.38;5026394;28;20067;-55
2021/04/01 11:09:29;;;;;;;4.07;2.58;;;;;;;20.57;33.05;96365.84;5062544;28;20052;-54
2021/04/01 11:14:30;;;;;;;2.63;2.13;;;;;;;20.63;32.91;96364.75;5060826;28;20048;-57
2021/04/01 11:16:55;;;;;;;6.43;2.28;;;;;;;20.65;32.75;96359.84;5061926;28;20087;-56
2021/04/01 11:19:21;;;;;;;4.60;2.30;;;;;;;20.68;32.93;96358.44;5063489;28;20098;-56
2021/04/01 11:21:47;;;;;;;5.68;2.53;;;;;;;20.71;32.51;96348.94;5046035;28;20061;-56
2021/04/01 11:24:13;;;;;;;3.28;2.35;;;;;;;20.73;32.70;96350.25;5065715;28;20048;-57
2021/04/01 11:26:39;;;;;;;4.63;2.45;;;;;;;20.75;32.38;96350.78;5064455;28;20090;-57
2021/04/01 11:29:12;;;;;;;3.33;2.45;;;;;;;20.79;32.65;96348.28;5066237;28;20546;-56
2021/04/01 11:31:38;;;;;;;3.40;2.28;;;;;;;20.82;32.32;96345.00;5064879;28;20048;-57
2021/04/01 11:34:04;;;;;;;3.22;2.33;;;;;;;20.85;32.52;96347.13;5065082;28;20092;-56
2021/04/01 11:36:37;;;;;;;2.63;2.30;;;;;;;20.89;32.67;96344.66;5049823;28;20044;-56
2021/04/01 11:39:11;;;;;;;3.65;2.50;;;;;;;20.90;33.08;96341.66;5065867;28;20083;-55
2021/04/01 11:41:37;;;;;;;4.05;2.70;;;;;;;20.93;32.62;96332.91;5063395;28;20068;-56
2021/04/01 11:44:03;;;;;;;4.15;2.17;;;;;;;20.96;32.53;96326.09;5060034;28;20049;-53
2021/04/01 11:46:31;;;;;;;3.42;2.25;;;;;;;20.99;32.45;96339.94;5059713;28;20049;-56
2021/04/01 11:48:57;;;;;;;2.58;2.38;;;;;;;21.01;32.00;96345.09;5064272;28;20397;-57
2021/04/01 11:51:31;;;;;;;3.88;2.30;;;;;;;21.03;32.00;96321.13;5067124;28;20500;-56
2021/04/01 11:53:57;;;;;;;3.17;2.47;;;;;;;21.04;31.70;96331.72;5062868;28;20431;-56
2021/04/01 11:56:25;;;;;;;3.47;2.55;;;;;;;21.07;31.86;96329.53;5059077;28;20124;-56
2021/04/01 11:58:51;;;;;;;3.95;2.42;;;;;;;21.09;31.23;96316.44;5062056;28;20501;-57
2021/04/01 12:01:25;;;;;;;3.22;2.10;;;;;;;21.11;31.36;96315.03;5060941;28;20484;-56
2021/04/01 12:03:58;;;;;;;3.33;1.80;;;;;;;21.13;31.36;96310.13;5063354;28;20420;-57
2021/04/01 12:06:26;;;;;;;2.88;2.10;;;;;;;21.15;31.61;96307.91;5065982;28;20286;-56
2021/04/01 12:08:52;;;;;;;3.38;1.90;;;;;;;21.16;31.29;96312.25;5064069;28;20059;-54
2021/04/01 12:11:17;;;;;;;2.15;1.88;;;;;;;21.20;31.24;96304.31;5063165;28;20072;-58
2021/04/01 12:13:43;;;;;;;2.95;2.00;;;;;;;21.22;31.42;96297.47;5067580;28;20048;-57
2021/04/01 12:16:19;;;;;;;2.92;1.92;;;;;;;21.24;30.94;96299.91;5067057;28;20040;-56
2021/04/01 12:18:46;;;;;;;3.70;2.00;;;;;;;21.26;31.17;96301.25;5067357;28;20139;-57
2021/04/01 12:21:12;;;;;;;2.92;1.83;;;;;;;21.28;31.11;96298.22;5067179;28;20087;-57
2021/04/01 12:23:45;;;;;;;4.63;2.20;;;;;;;21.31;30.89;96305.00;5062726;28;20449;-56
2021/04/01 12:26:11;;;;;;;2.38;1.70;;;;;;;21.33;31.26;96300.88;5077654;28;20051;-56
2021/04/01 12:28:37;;;;;;;3.63;2.25;;;;;;;21.37;31.18;96301.94;5066463;28;20052;-57
2021/04/01 12:31:02;;;;;;;5.95;2.40;;;;;;;21.39;31.39;96293.47;5065739;28;20083;-56
2021/04/01 12:33:29;;;;;;;4.25;2.20;;;;;;;21.43;31.34;96306.25;5061545;28;20063;-57
2021/04/01 12:35:59;;;;;;;3.28;1.95;;;;;;;21.44;31.05;96290.72;5061539;28;20637;-56
2021/04/01 12:38:32;;;;;;;3.97;1.80;;;;;;;21.47;30.98;96281.16;5065883;28;20060;-58
2021/04/01 12:40:59;;;;;;;3.17;1.88;;;;;;;21.49;30.96;96287.13;5065211;28;20076;-57
2021/04/01 12:43:36;;;;;;;4.05;2.00;;;;;;;21.48;31.02;96280.03;5058167;28;20056;-57
2021/04/01 12:46:02;;;;;;;5.45;2.30;;;;;;;21.53;31.13;96286.25;5058647;28;20510;-57
2021/04/01 12:48:46;;;;;;;5.30;1.80;;;;;;;21.55;31.05;96278.59;5058879;28;20055;-56
2021/04/01 12:51:13;;;;;;;3.50;2.30;;;;;;;21.60;31.21;96283.16;5061385;28;20082;-56
2021/04/01 12:53:40;;;;;;;4.38;2.10;;;;;;;21.60;31.15;96285.88;5064523;28;20048;-59
2021/04/01 12:56:16;;;;;;;2.65;1.80;;;;;;;21.61;31.04;96271.97;5058653;28;20049;-56
2021/04/01 12:58:47;;;;;;;2.70;2.00;;;;;;;21.63;31.08;96271.69;5063694;28;20040;-55
2021/04/01 13:03:48;;;;;;;;;;;;;;;21.68;31.14;96266.16;5065129;28;20036;-57
2021/04/01 13:06:18;;;;;;;4.90;2.30;;;;;;;21.68;31.12;96266.16;5056855;28;19919;-57